Mitchell, Georgia
Current Conditions -  °F | °C
As of 6:55 PM on Tuesday 25 Nov 2014 (Local Time) from KOKZ Reporting Station
Light Rain Light Rain  
Wind Chill: 50°   Ceiling: 10000
Heat Index: 50°   Visibility: 10mi
Dew Point: 50°   Wind: 0mph
Humidity: 98%   Direction: NA
Pressure: 30.07"   Gusts: NA
Location:  33.22°N, 82.7°W
Report Text: KOKZ 252355Z AUTO 00000KT 10SM -RA OVC100 10/10 A3007 RMK AO2 T01010098 10128 20100
Loading
Personal Weather Stations






























Interactive Weather Map New forecast layout! Learn more

10-Day Weather Forecast

Advertisements
Track Severe Weather on mobile